sensor_id;sensor_type;location;lat;lon;timestamp;pressure;altitude;pressure_sealevel;temperature;humidity
46886;BME280;32622;48.202;11.326;2023-11-18T00:00:51;1027.68;;;4.78;38.15
46886;BME280;32622;48.202;11.326;2023-11-18T00:02:53;1027.65;;;4.82;37.99
46886;BME280;32622;48.202;11.326;2023-11-18T00:04:55;1027.60;;;5.05;37.98
46886;BME280;32622;48.202;11.326;2023-11-18T00:06:57;1027.61;;;5.14;38.02
46886;BME280;32622;48.202;11.326;2023-11-18T00:08:59;1027.68;;;4.94;38.44
46886;BME280;32622;48.202;11.326;2023-11-18T00:11:02;1027.90;;;3.97;38.73
46886;BME280;32622;48.202;11.326;2023-11-18T00:13:04;1027.74;;;4.64;38.79
46886;BME280;32622;48.202;11.326;2023-11-18T00:15:06;1027.78;;;4.37;38.78
46886;BME280;32622;48.202;11.326;2023-11-18T00:17:09;1027.69;;;4.71;38.07
46886;BME280;32622;48.202;11.326;2023-11-18T00:19:11;1027.65;;;5.07;37.98
46886;BME280;32622;48.202;11.326;2023-11-18T00:21:14;1028.08;;;3.54;39.13
46886;BME280;32622;48.202;11.326;2023-11-18T00:23:16;1027.96;;;4.23;39.20
46886;BME280;32622;48.202;11.326;2023-11-18T00:25:18;1027.76;;;4.88;38.47
46886;BME280;32622;48.202;11.326;2023-11-18T00:27:20;1027.78;;;4.84;37.99
46886;BME280;32622;48.202;11.326;2023-11-18T00:29:22;1027.72;;;5.13;37.88
46886;BME280;32622;48.202;11.326;2023-11-18T00:31:24;1027.78;;;4.76;37.78
46886;BME280;32622;48.202;11.326;2023-11-18T00:33:26;1027.86;;;4.47;37.89
46886;BME280;32622;48.202;11.326;2023-11-18T00:35:29;1027.87;;;4.40;38.31
46886;BME280;32622;48.202;11.326;2023-11-18T00:37:31;1027.75;;;4.97;38.10
46886;BME280;32622;48.202;11.326;2023-11-18T00:39:33;1027.99;;;3.88;39.12
46886;BME280;32622;48.202;11.326;2023-11-18T00:41:35;1027.99;;;3.78;39.21
46886;BME280;32622;48.202;11.326;2023-11-18T00:43:37;1027.97;;;4.03;38.96
46886;BME280;32622;48.202;11.326;2023-11-18T00:45:39;1028.04;;;3.85;39.92
46886;BME280;32622;48.202;11.326;2023-11-18T00:47:41;1028.06;;;3.73;39.35
46886;BME280;32622;48.202;11.326;2023-11-18T00:49:43;1028.07;;;3.76;39.28
46886;BME280;32622;48.202;11.326;2023-11-18T00:51:45;1028.01;;;3.85;39.55
46886;BME280;32622;48.202;11.326;2023-11-18T00:53:47;1027.86;;;4.28;38.96
46886;BME280;32622;48.202;11.326;2023-11-18T00:55:50;1027.99;;;3.67;39.64
46886;BME280;32622;48.202;11.326;2023-11-18T00:57:52;1027.85;;;4.38;39.05
46886;BME280;32622;48.202;11.326;2023-11-18T00:59:54;1028.01;;;3.76;39.45
46886;BME280;32622;48.202;11.326;2023-11-18T01:01:56;1027.93;;;3.95;39.22
46886;BME280;32622;48.202;11.326;2023-11-18T01:03:58;1027.84;;;4.45;38.61
46886;BME280;32622;48.202;11.326;2023-11-18T01:06:00;1027.97;;;4.08;38.48
46886;BME280;32622;48.202;11.326;2023-11-18T01:08:03;1027.95;;;4.33;38.62
46886;BME280;32622;48.202;11.326;2023-11-18T01:10:05;1028.14;;;3.67;39.45
46886;BME280;32622;48.202;11.326;2023-11-18T01:12:08;1028.13;;;3.94;39.11
46886;BME280;32622;48.202;11.326;2023-11-18T01:14:11;1028.15;;;3.82;39.42
46886;BME280;32622;48.202;11.326;2023-11-18T01:16:13;1028.05;;;4.14;38.52
46886;BME280;32622;48.202;11.326;2023-11-18T01:18:15;1028.12;;;4.00;38.74
46886;BME280;32622;48.202;11.326;2023-11-18T01:20:17;1028.10;;;4.00;39.06
46886;BME280;32622;48.202;11.326;2023-11-18T01:22:19;1027.96;;;4.47;38.57
46886;BME280;32622;48.202;11.326;2023-11-18T01:24:21;1028.09;;;3.86;38.89
46886;BME280;32622;48.202;11.326;2023-11-18T01:26:24;1028.39;;;2.86;40.63
46886;BME280;32622;48.202;11.326;2023-11-18T01:28:26;1028.31;;;3.07;40.25
46886;BME280;32622;48.202;11.326;2023-11-18T01:30:28;1028.19;;;3.80;40.01
46886;BME280;32622;48.202;11.326;2023-11-18T01:32:30;1028.18;;;3.85;39.35
46886;BME280;32622;48.202;11.326;2023-11-18T01:34:32;1028.24;;;3.49;39.28
46886;BME280;32622;48.202;11.326;2023-11-18T01:36:34;1028.26;;;3.53;39.63
46886;BME280;32622;48.202;11.326;2023-11-18T01:38:36;1028.32;;;3.48;40.15
46886;BME280;32622;48.202;11.326;2023-11-18T01:40:39;1028.15;;;4.17;39.13
46886;BME280;32622;48.202;11.326;2023-11-18T01:42:42;1028.38;;;3.31;39.87
46886;BME280;32622;48.202;11.326;2023-11-18T01:44:44;1028.24;;;3.76;39.86
46886;BME280;32622;48.202;11.326;2023-11-18T01:46:46;1028.31;;;3.52;40.22
46886;BME280;32622;48.202;11.326;2023-11-18T01:48:49;1028.36;;;3.36;40.28
46886;BME280;32622;48.202;11.326;2023-11-18T01:50:51;1028.24;;;3.90;39.72
46886;BME280;32622;48.202;11.326;2023-11-18T01:52:53;1028.26;;;3.92;39.22
46886;BME280;32622;48.202;11.326;2023-11-18T01:54:56;1028.21;;;4.35;39.00
46886;BME280;32622;48.202;11.326;2023-11-18T01:56:58;1028.40;;;3.61;39.31
46886;BME280;32622;48.202;11.326;2023-11-18T01:59:01;1028.19;;;4.46;38.69
46886;BME280;32622;48.202;11.326;2023-11-18T02:01:03;1028.38;;;3.75;39.06
46886;BME280;32622;48.202;11.326;2023-11-18T02:03:06;1028.28;;;4.10;38.32
46886;BME280;32622;48.202;11.326;2023-11-18T02:05:08;1028.32;;;3.95;39.28
46886;BME280;32622;48.202;11.326;2023-11-18T02:07:10;1028.31;;;4.22;38.66
46886;BME280;32622;48.202;11.326;2023-11-18T02:09:12;1028.29;;;4.40;38.73
46886;BME280;32622;48.202;11.326;2023-11-18T02:11:20;1028.32;;;4.39;38.58
46886;BME280;32622;48.202;11.326;2023-11-18T02:13:29;1028.34;;;4.23;38.71
46886;BME280;32622;48.202;11.326;2023-11-18T02:15:34;1028.37;;;4.09;38.77
46886;BME280;32622;48.202;11.326;2023-11-18T02:17:38;1028.42;;;3.89;39.28
46886;BME280;32622;48.202;11.326;2023-11-18T02:19:41;1028.31;;;4.28;38.62
46886;BME280;32622;48.202;11.326;2023-11-18T02:21:44;1028.26;;;4.47;38.13
46886;BME280;32622;48.202;11.326;2023-11-18T02:23:48;1028.47;;;3.53;38.76
46886;BME280;32622;48.202;11.326;2023-11-18T02:25:50;1028.54;;;3.37;39.73
46886;BME280;32622;48.202;11.326;2023-11-18T02:27:53;1028.54;;;3.34;39.89
46886;BME280;32622;48.202;11.326;2023-11-18T02:29:55;1028.36;;;4.01;39.31
46886;BME280;32622;48.202;11.326;2023-11-18T02:32:02;1028.42;;;3.93;38.88
46886;BME280;32622;48.202;11.326;2023-11-18T02:34:08;1028.51;;;3.51;39.52
46886;BME280;32622;48.202;11.326;2023-11-18T02:36:20;1028.46;;;3.80;39.10
46886;BME280;32622;48.202;11.326;2023-11-18T02:38:29;1028.47;;;3.79;39.14
46886;BME280;32622;48.202;11.326;2023-11-18T02:40:33;1028.55;;;3.47;39.62
46886;BME280;32622;48.202;11.326;2023-11-18T02:42:37;1028.38;;;4.10;39.34
46886;BME280;32622;48.202;11.326;2023-11-18T02:44:40;1028.43;;;3.78;39.41
46886;BME280;32622;48.202;11.326;2023-11-18T02:46:44;1028.46;;;3.78;39.48
46886;BME280;32622;48.202;11.326;2023-11-18T02:48:46;1028.48;;;3.85;39.31
46886;BME280;32622;48.202;11.326;2023-11-18T02:50:49;1028.56;;;3.40;39.53
46886;BME280;32622;48.202;11.326;2023-11-18T02:52:51;1028.51;;;3.66;39.31
46886;BME280;32622;48.202;11.326;2023-11-18T02:54:53;1028.43;;;3.88;38.53
46886;BME280;32622;48.202;11.326;2023-11-18T02:56:55;1028.34;;;4.17;38.18
46886;BME280;32622;48.202;11.326;2023-11-18T02:58:57;1028.32;;;4.25;38.61
46886;BME280;32622;48.202;11.326;2023-11-18T03:00:59;1028.36;;;4.09;38.67
46886;BME280;32622;48.202;11.326;2023-11-18T03:03:01;1028.40;;;3.97;38.65
46886;BME280;32622;48.202;11.326;2023-11-18T03:05:04;1028.50;;;3.69;38.69
46886;BME280;32622;48.202;11.326;2023-11-18T03:07:06;1028.38;;;4.21;38.13
46886;BME280;32622;48.202;11.326;2023-11-18T03:09:08;1028.38;;;4.27;38.19
46886;BME280;32622;48.202;11.326;2023-11-18T03:11:11;1028.64;;;3.34;39.44
46886;BME280;32622;48.202;11.326;2023-11-18T03:13:13;1028.48;;;3.92;39.09
46886;BME280;32622;48.202;11.326;2023-11-18T03:15:15;1028.47;;;4.07;39.53
46886;BME280;32622;48.202;11.326;2023-11-18T03:17:17;1028.74;;;3.05;40.17
46886;BME280;32622;48.202;11.326;2023-11-18T03:19:19;1028.70;;;3.37;40.18
46886;BME280;32622;48.202;11.326;2023-11-18T03:21:21;1028.65;;;3.42;39.20
46886;BME280;32622;48.202;11.326;2023-11-18T03:23:24;1028.51;;;4.11;39.27
46886;BME280;32622;48.202;11.326;2023-11-18T03:25:26;1028.51;;;4.16;38.81
46886;BME280;32622;48.202;11.326;2023-11-18T03:27:29;1028.56;;;4.12;38.85
46886;BME280;32622;48.202;11.326;2023-11-18T03:29:31;1028.60;;;4.15;39.03
46886;BME280;32622;48.202;11.326;2023-11-18T03:31:33;1028.62;;;4.04;38.66
46886;BME280;32622;48.202;11.326;2023-11-18T03:33:35;1028.56;;;4.32;38.22
46886;BME280;32622;48.202;11.326;2023-11-18T03:35:37;1028.55;;;4.51;38.29
46886;BME280;32622;48.202;11.326;2023-11-18T03:37:39;1028.64;;;4.25;38.29
46886;BME280;32622;48.202;11.326;2023-11-18T03:39:42;1028.64;;;4.30;38.38
46886;BME280;32622;48.202;11.326;2023-11-18T03:41:44;1028.65;;;4.37;38.75
46886;BME280;32622;48.202;11.326;2023-11-18T03:43:46;1028.65;;;4.63;38.41
46886;BME280;32622;48.202;11.326;2023-11-18T03:45:48;1028.68;;;4.60;37.97
46886;BME280;32622;48.202;11.326;2023-11-18T03:47:50;1028.91;;;3.83;39.74
46886;BME280;32622;48.202;11.326;2023-11-18T03:49:52;1029.11;;;3.26;40.30
46886;BME280;32622;48.202;11.326;2023-11-18T03:51:54;1029.06;;;3.65;40.12
46886;BME280;32622;48.202;11.326;2023-11-18T03:53:56;1029.07;;;3.73;40.31
46886;BME280;32622;48.202;11.326;2023-11-18T03:55:59;1028.99;;;4.07;40.14
46886;BME280;32622;48.202;11.326;2023-11-18T03:58:01;1029.43;;;2.51;41.81
46886;BME280;32622;48.202;11.326;2023-11-18T04:00:04;1029.31;;;2.91;41.26
46886;BME280;32622;48.202;11.326;2023-11-18T04:02:06;1029.37;;;2.60;41.27
46886;BME280;32622;48.202;11.326;2023-11-18T04:04:08;1029.19;;;3.40;40.66
46886;BME280;32622;48.202;11.326;2023-11-18T04:06:10;1029.18;;;3.19;40.37
46886;BME280;32622;48.202;11.326;2023-11-18T04:08:13;1029.09;;;3.51;39.91
46886;BME280;32622;48.202;11.326;2023-11-18T04:10:15;1028.93;;;3.93;39.18
46886;BME280;32622;48.202;11.326;2023-11-18T04:12:17;1028.96;;;3.62;38.99
46886;BME280;32622;48.202;11.326;2023-11-18T04:14:19;1028.78;;;4.07;38.70
46886;BME280;32622;48.202;11.326;2023-11-18T04:16:21;1028.84;;;3.89;38.15
46886;BME280;32622;48.202;11.326;2023-11-18T04:18:23;1028.86;;;3.70;38.49
46886;BME280;32622;48.202;11.326;2023-11-18T04:20:26;1028.73;;;4.18;38.43
46886;BME280;32622;48.202;11.326;2023-11-18T04:22:28;1028.83;;;3.92;38.59
46886;BME280;32622;48.202;11.326;2023-11-18T04:24:30;1028.89;;;3.75;39.09
46886;BME280;32622;48.202;11.326;2023-11-18T04:26:32;1028.78;;;4.10;38.38
46886;BME280;32622;48.202;11.326;2023-11-18T04:28:34;1028.62;;;4.65;38.43
46886;BME280;32622;48.202;11.326;2023-11-18T04:30:37;1028.73;;;4.18;38.23
46886;BME280;32622;48.202;11.326;2023-11-18T04:32:39;1028.71;;;4.17;38.01
46886;BME280;32622;48.202;11.326;2023-11-18T04:34:41;1028.55;;;4.96;37.28
46886;BME280;32622;48.202;11.326;2023-11-18T04:36:43;1028.53;;;5.06;37.71
46886;BME280;32622;48.202;11.326;2023-11-18T04:38:45;1028.64;;;4.62;37.35
46886;BME280;32622;48.202;11.326;2023-11-18T04:40:47;1028.48;;;5.21;36.83
46886;BME280;32622;48.202;11.326;2023-11-18T04:42:49;1028.65;;;4.54;37.28
46886;BME280;32622;48.202;11.326;2023-11-18T04:44:51;1028.74;;;4.38;37.58
46886;BME280;32622;48.202;11.326;2023-11-18T04:46:53;1028.65;;;4.83;37.00
46886;BME280;32622;48.202;11.326;2023-11-18T04:48:55;1028.75;;;4.46;37.49
46886;BME280;32622;48.202;11.326;2023-11-18T04:50:57;1028.79;;;4.19;37.71
46886;BME280;32622;48.202;11.326;2023-11-18T04:53:00;1028.70;;;4.64;37.32
46886;BME280;32622;48.202;11.326;2023-11-18T04:55:04;1028.58;;;5.10;37.06
46886;BME280;32622;48.202;11.326;2023-11-18T04:57:06;1028.62;;;4.97;36.84
46886;BME280;32622;48.202;11.326;2023-11-18T04:59:09;1028.55;;;5.31;36.58
46886;BME280;32622;48.202;11.326;2023-11-18T05:01:11;1028.64;;;5.07;36.84
46886;BME280;32622;48.202;11.326;2023-11-18T05:03:13;1028.83;;;4.26;37.59
46886;BME280;32622;48.202;11.326;2023-11-18T05:05:16;1028.80;;;4.36;37.50
46886;BME280;32622;48.202;11.326;2023-11-18T05:07:18;1028.68;;;4.86;37.09
46886;BME280;32622;48.202;11.326;2023-11-18T05:09:20;1028.65;;;4.80;36.95
46886;BME280;32622;48.202;11.326;2023-11-18T05:11:22;1028.69;;;4.78;37.14
46886;BME280;32622;48.202;11.326;2023-11-18T05:13:24;1028.59;;;4.94;37.27
46886;BME280;32622;48.202;11.326;2023-11-18T05:15:27;1028.52;;;5.05;37.13
46886;BME280;32622;48.202;11.326;2023-11-18T05:17:29;1028.57;;;4.82;37.44
46886;BME280;32622;48.202;11.326;2023-11-18T05:19:31;1028.53;;;4.87;37.18
46886;BME280;32622;48.202;11.326;2023-11-18T05:21:33;1028.45;;;5.05;36.86
46886;BME280;32622;48.202;11.326;2023-11-18T05:23:35;1028.45;;;5.15;36.87
46886;BME280;32622;48.202;11.326;2023-11-18T05:25:39;1028.44;;;5.27;36.58
46886;BME280;32622;48.202;11.326;2023-11-18T05:27:42;1028.59;;;5.03;36.81
46886;BME280;32622;48.202;11.326;2023-11-18T05:29:44;1028.59;;;5.10;36.80
46886;BME280;32622;48.202;11.326;2023-11-18T05:31:46;1028.51;;;5.33;36.67
46886;BME280;32622;48.202;11.326;2023-11-18T05:33:48;1028.44;;;5.66;36.36
46886;BME280;32622;48.202;11.326;2023-11-18T05:35:50;1028.48;;;5.52;36.34
46886;BME280;32622;48.202;11.326;2023-11-18T05:37:52;1028.43;;;5.51;36.41
46886;BME280;32622;48.202;11.326;2023-11-18T05:39:55;1028.41;;;5.46;36.51
46886;BME280;32622;48.202;11.326;2023-11-18T05:41:57;1028.50;;;5.20;36.40
46886;BME280;32622;48.202;11.326;2023-11-18T05:44:00;1028.57;;;5.03;36.40
46886;BME280;32622;48.202;11.326;2023-11-18T05:46:02;1028.56;;;5.19;36.67
46886;BME280;32622;48.202;11.326;2023-11-18T05:48:04;1028.58;;;5.09;36.49
46886;BME280;32622;48.202;11.326;2023-11-18T05:50:07;1028.56;;;5.09;36.61
46886;BME280;32622;48.202;11.326;2023-11-18T05:52:09;1028.68;;;4.59;37.19
46886;BME280;32622;48.202;11.326;2023-11-18T05:54:12;1028.61;;;5.21;36.97
46886;BME280;32622;48.202;11.326;2023-11-18T05:56:15;1028.67;;;5.16;36.54
46886;BME280;32622;48.202;11.326;2023-11-18T05:58:17;1028.63;;;5.40;36.60
46886;BME280;32622;48.202;11.326;2023-11-18T06:00:19;1028.84;;;4.68;36.69
46886;BME280;32622;48.202;11.326;2023-11-18T06:02:21;1028.71;;;5.36;36.48
46886;BME280;32622;48.202;11.326;2023-11-18T06:04:23;1028.78;;;5.37;36.52
46886;BME280;32622;48.202;11.326;2023-11-18T06:06:26;1028.95;;;4.90;36.60
46886;BME280;32622;48.202;11.326;2023-11-18T06:08:28;1028.86;;;5.47;36.43
46886;BME280;32622;48.202;11.326;2023-11-18T06:10:30;1028.92;;;5.32;36.13
46886;BME280;32622;48.202;11.326;2023-11-18T06:12:32;1028.90;;;5.61;36.41
46886;BME280;32622;48.202;11.326;2023-11-18T06:14:34;1028.95;;;5.38;36.37
46886;BME280;32622;48.202;11.326;2023-11-18T06:16:36;1029.06;;;4.76;36.82
46886;BME280;32622;48.202;11.326;2023-11-18T06:18:38;1028.93;;;5.07;36.86
46886;BME280;32622;48.202;11.326;2023-11-18T06:20:41;1028.88;;;5.17;36.59
46886;BME280;32622;48.202;11.326;2023-11-18T06:22:43;1028.95;;;4.85;37.07
46886;BME280;32622;48.202;11.326;2023-11-18T06:24:45;1028.82;;;5.33;36.80
46886;BME280;32622;48.202;11.326;2023-11-18T06:26:47;1028.98;;;4.73;37.05
46886;BME280;32622;48.202;11.326;2023-11-18T06:28:49;1028.90;;;5.01;37.25
46886;BME280;32622;48.202;11.326;2023-11-18T06:30:51;1028.95;;;4.87;37.05
46886;BME280;32622;48.202;11.326;2023-11-18T06:32:53;1029.03;;;4.49;37.68
46886;BME280;32622;48.202;11.326;2023-11-18T06:34:55;1028.82;;;5.18;36.62
46886;BME280;32622;48.202;11.326;2023-11-18T06:36:58;1028.74;;;5.38;36.72
46886;BME280;32622;48.202;11.326;2023-11-18T06:39:00;1028.89;;;4.75;37.11
46886;BME280;32622;48.202;11.326;2023-11-18T06:41:02;1028.94;;;4.57;37.46
46886;BME280;32622;48.202;11.326;2023-11-18T06:43:05;1028.96;;;4.72;37.15
46886;BME280;32622;48.202;11.326;2023-11-18T06:45:08;1028.94;;;4.91;36.96
46886;BME280;32622;48.202;11.326;2023-11-18T06:47:10;1028.98;;;4.75;37.30
46886;BME280;32622;48.202;11.326;2023-11-18T06:49:12;1028.84;;;5.17;36.75
46886;BME280;32622;48.202;11.326;2023-11-18T06:51:15;1028.89;;;4.99;37.02
46886;BME280;32622;48.202;11.326;2023-11-18T06:53:17;1028.89;;;5.14;37.06
46886;BME280;32622;48.202;11.326;2023-11-18T06:55:19;1028.93;;;4.97;37.16
46886;BME280;32622;48.202;11.326;2023-11-18T06:57:21;1028.92;;;5.41;36.74
46886;BME280;32622;48.202;11.326;2023-11-18T06:59:23;1028.98;;;5.33;36.73
46886;BME280;32622;48.202;11.326;2023-11-18T07:01:25;1028.89;;;5.57;36.52
46886;BME280;32622;48.202;11.326;2023-11-18T07:03:27;1028.88;;;5.70;36.53
46886;BME280;32622;48.202;11.326;2023-11-18T07:05:29;1028.88;;;5.54;36.24
46886;BME280;32622;48.202;11.326;2023-11-18T07:07:31;1028.95;;;5.11;36.41
46886;BME280;32622;48.202;11.326;2023-11-18T07:09:34;1028.84;;;5.49;36.39
46886;BME280;32622;48.202;11.326;2023-11-18T07:11:36;1028.75;;;6.04;36.35
46886;BME280;32622;48.202;11.326;2023-11-18T07:13:38;1028.96;;;5.35;36.15
46886;BME280;32622;48.202;11.326;2023-11-18T07:15:40;1028.93;;;5.53;36.36
46886;BME280;32622;48.202;11.326;2023-11-18T07:17:42;1028.96;;;5.44;36.28
46886;BME280;32622;48.202;11.326;2023-11-18T07:19:44;1028.90;;;5.57;36.21
46886;BME280;32622;48.202;11.326;2023-11-18T07:21:46;1028.84;;;5.83;35.80
46886;BME280;32622;48.202;11.326;2023-11-18T07:23:49;1028.83;;;5.96;35.75
46886;BME280;32622;48.202;11.326;2023-11-18T07:25:51;1028.82;;;5.98;35.96
46886;BME280;32622;48.202;11.326;2023-11-18T07:27:53;1028.81;;;6.01;35.96
46886;BME280;32622;48.202;11.326;2023-11-18T07:29:55;1028.95;;;5.63;36.10
46886;BME280;32622;48.202;11.326;2023-11-18T07:31:57;1028.94;;;5.68;35.86
46886;BME280;32622;48.202;11.326;2023-11-18T07:33:59;1028.91;;;5.77;36.06
46886;BME280;32622;48.202;11.326;2023-11-18T07:36:01;1028.85;;;5.98;35.90
46886;BME280;32622;48.202;11.326;2023-11-18T07:38:03;1028.83;;;6.25;35.59
46886;BME280;32622;48.202;11.326;2023-11-18T07:40:07;1028.93;;;6.05;35.63
46886;BME280;32622;48.202;11.326;2023-11-18T07:42:11;1029.01;;;5.99;35.65
46886;BME280;32622;48.202;11.326;2023-11-18T07:44:13;1028.98;;;6.07;35.63
46886;BME280;32622;48.202;11.326;2023-11-18T07:46:15;1029.05;;;5.70;35.96
46886;BME280;32622;48.202;11.326;2023-11-18T07:48:17;1028.92;;;6.26;36.18
46886;BME280;32622;48.202;11.326;2023-11-18T07:50:19;1028.94;;;5.95;35.73
46886;BME280;32622;48.202;11.326;2023-11-18T07:52:21;1028.91;;;5.93;35.84
46886;BME280;32622;48.202;11.326;2023-11-18T07:54:24;1028.81;;;6.32;35.99
46886;BME280;32622;48.202;11.326;2023-11-18T07:56:26;1028.77;;;6.35;35.73
46886;BME280;32622;48.202;11.326;2023-11-18T07:58:28;1028.79;;;6.46;35.74
46886;BME280;32622;48.202;11.326;2023-11-18T08:00:30;1028.84;;;6.28;35.95
46886;BME280;32622;48.202;11.326;2023-11-18T08:02:32;1028.91;;;6.18;35.81
46886;BME280;32622;48.202;11.326;2023-11-18T08:04:34;1028.81;;;6.65;35.71
46886;BME280;32622;48.202;11.326;2023-11-18T08:06:36;1028.84;;;6.62;35.54
46886;BME280;32622;48.202;11.326;2023-11-18T08:08:39;1028.98;;;6.22;35.48
46886;BME280;32622;48.202;11.326;2023-11-18T08:10:41;1029.05;;;6.03;35.94
46886;BME280;32622;48.202;11.326;2023-11-18T08:12:43;1029.02;;;6.15;35.95
46886;BME280;32622;48.202;11.326;2023-11-18T08:14:46;1028.86;;;6.66;35.76
46886;BME280;32622;48.202;11.326;2023-11-18T08:16:48;1029.05;;;5.90;35.63
46886;BME280;32622;48.202;11.326;2023-11-18T08:18:50;1028.81;;;6.59;35.36
46886;BME280;32622;48.202;11.326;2023-11-18T08:20:52;1028.69;;;7.01;35.36
46886;BME280;32622;48.202;11.326;2023-11-18T08:22:54;1028.82;;;6.36;35.66
46886;BME280;32622;48.202;11.326;2023-11-18T08:24:57;1028.88;;;6.20;35.41
46886;BME280;32622;48.202;11.326;2023-11-18T08:26:59;1028.82;;;6.54;35.17
46886;BME280;32622;48.202;11.326;2023-11-18T08:29:01;1028.86;;;6.76;35.18
46886;BME280;32622;48.202;11.326;2023-11-18T08:31:03;1028.90;;;6.96;35.04
46886;BME280;32622;48.202;11.326;2023-11-18T08:33:06;1028.98;;;6.81;35.14
46886;BME280;32622;48.202;11.326;2023-11-18T08:35:08;1029.01;;;6.68;35.19
46886;BME280;32622;48.202;11.326;2023-11-18T08:37:10;1029.03;;;6.42;35.49
46886;BME280;32622;48.202;11.326;2023-11-18T08:39:12;1028.96;;;6.63;34.89
46886;BME280;32622;48.202;11.326;2023-11-18T08:41:15;1028.85;;;6.91;35.01
46886;BME280;32622;48.202;11.326;2023-11-18T08:43:17;1029.06;;;5.90;36.00
46886;BME280;32622;48.202;11.326;2023-11-18T08:45:20;1028.93;;;6.30;35.90
46886;BME280;32622;48.202;11.326;2023-11-18T08:47:23;1028.84;;;6.59;35.62
46886;BME280;32622;48.202;11.326;2023-11-18T08:49:25;1028.90;;;6.16;34.81
46886;BME280;32622;48.202;11.326;2023-11-18T08:51:27;1028.63;;;7.23;34.97
46886;BME280;32622;48.202;11.326;2023-11-18T08:53:29;1028.72;;;6.79;35.33
46886;BME280;32622;48.202;11.326;2023-11-18T08:55:32;1028.65;;;7.05;34.96
46886;BME280;32622;48.202;11.326;2023-11-18T08:57:35;1028.81;;;6.52;34.58
46886;BME280;32622;48.202;11.326;2023-11-18T08:59:37;1028.65;;;7.06;34.45
46886;BME280;32622;48.202;11.326;2023-11-18T09:01:42;1028.63;;;6.93;34.63
46886;BME280;32622;48.202;11.326;2023-11-18T09:03:44;1028.70;;;6.53;35.23
46886;BME280;32622;48.202;11.326;2023-11-18T09:05:47;1028.78;;;6.08;35.06
46886;BME280;32622;48.202;11.326;2023-11-18T09:07:49;1028.73;;;6.33;35.17
46886;BME280;32622;48.202;11.326;2023-11-18T09:09:51;1028.61;;;6.76;35.03
46886;BME280;32622;48.202;11.326;2023-11-18T09:11:54;1028.67;;;6.55;35.27
46886;BME280;32622;48.202;11.326;2023-11-18T09:13:56;1028.67;;;6.41;35.16
46886;BME280;32622;48.202;11.326;2023-11-18T09:16:00;1028.58;;;6.75;35.25
46886;BME280;32622;48.202;11.326;2023-11-18T09:18:02;1028.75;;;6.23;34.97
46886;BME280;32622;48.202;11.326;2023-11-18T09:20:06;1028.80;;;6.34;35.25
46886;BME280;32622;48.202;11.326;2023-11-18T09:22:08;1028.74;;;6.80;34.94
46886;BME280;32622;48.202;11.326;2023-11-18T09:24:10;1028.72;;;6.72;33.99
46886;BME280;32622;48.202;11.326;2023-11-18T09:26:12;1028.84;;;6.21;34.65
46886;BME280;32622;48.202;11.326;2023-11-18T09:28:15;1028.61;;;6.90;34.64
46886;BME280;32622;48.202;11.326;2023-11-18T09:30:17;1028.59;;;6.95;34.73
46886;BME280;32622;48.202;11.326;2023-11-18T09:32:23;1028.67;;;6.59;34.14
46886;BME280;32622;48.202;11.326;2023-11-18T09:34:25;1028.63;;;6.74;34.30
46886;BME280;32622;48.202;11.326;2023-11-18T09:36:27;1028.73;;;6.67;34.70
46886;BME280;32622;48.202;11.326;2023-11-18T09:38:30;1028.88;;;6.03;34.73
46886;BME280;32622;48.202;11.326;2023-11-18T09:40:35;1028.63;;;6.82;34.38
46886;BME280;32622;48.202;11.326;2023-11-18T09:42:40;1028.57;;;7.25;33.89
46886;BME280;32622;48.202;11.326;2023-11-18T09:44:42;1028.59;;;7.04;33.59
46886;BME280;32622;48.202;11.326;2023-11-18T09:46:47;1028.60;;;7.02;33.88
46886;BME280;32622;48.202;11.326;2023-11-18T09:48:53;1028.55;;;7.03;34.04
46886;BME280;32622;48.202;11.326;2023-11-18T09:51:00;1028.52;;;7.27;33.57
46886;BME280;32622;48.202;11.326;2023-11-18T09:53:04;1028.57;;;7.19;33.27
46886;BME280;32622;48.202;11.326;2023-11-18T09:55:14;1028.49;;;7.55;32.26
46886;BME280;32622;48.202;11.326;2023-11-18T09:57:26;1028.32;;;8.29;31.92
46886;BME280;32622;48.202;11.326;2023-11-18T09:59:32;1028.53;;;7.32;32.56
46886;BME280;32622;48.202;11.326;2023-11-18T10:01:38;1028.41;;;7.84;32.34
46886;BME280;32622;48.202;11.326;2023-11-18T10:03:43;1028.46;;;7.41;33.00
46886;BME280;32622;48.202;11.326;2023-11-18T10:05:46;1028.43;;;7.36;32.80
46886;BME280;32622;48.202;11.326;2023-11-18T10:07:49;1028.42;;;7.55;32.02
46886;BME280;32622;48.202;11.326;2023-11-18T10:09:51;1028.50;;;7.32;32.43
46886;BME280;32622;48.202;11.326;2023-11-18T10:11:53;1028.44;;;7.41;32.46
46886;BME280;32622;48.202;11.326;2023-11-18T10:13:56;1028.44;;;7.53;32.42
46886;BME280;32622;48.202;11.326;2023-11-18T10:15:58;1028.56;;;6.74;33.25
46886;BME280;32622;48.202;11.326;2023-11-18T10:18:00;1028.43;;;6.98;32.77
46886;BME280;32622;48.202;11.326;2023-11-18T10:20:05;1028.37;;;7.05;33.22
46886;BME280;32622;48.202;11.326;2023-11-18T10:22:21;1028.30;;;7.04;33.27
46886;BME280;32622;48.202;11.326;2023-11-18T10:24:23;1028.42;;;6.65;33.61
46886;BME280;32622;48.202;11.326;2023-11-18T10:26:25;1028.41;;;6.78;33.68
46886;BME280;32622;48.202;11.326;2023-11-18T10:28:29;1028.29;;;7.24;33.26
46886;BME280;32622;48.202;11.326;2023-11-18T10:30:31;1028.32;;;6.85;33.56
46886;BME280;32622;48.202;11.326;2023-11-18T10:32:34;1028.22;;;7.21;32.92
46886;BME280;32622;48.202;11.326;2023-11-18T10:34:36;1028.28;;;6.97;33.44
46886;BME280;32622;48.202;11.326;2023-11-18T10:36:38;1028.32;;;6.57;33.48
46886;BME280;32622;48.202;11.326;2023-11-18T10:38:41;1028.21;;;7.00;33.35
46886;BME280;32622;48.202;11.326;2023-11-18T10:40:43;1028.15;;;7.22;33.15
46886;BME280;32622;48.202;11.326;2023-11-18T10:42:45;1028.01;;;7.58;33.10
46886;BME280;32622;48.202;11.326;2023-11-18T10:44:55;1028.35;;;6.41;33.51
46886;BME280;32622;48.202;11.326;2023-11-18T10:46:58;1028.26;;;6.92;33.03
46886;BME280;32622;48.202;11.326;2023-11-18T10:49:01;1028.20;;;7.46;32.57
46886;BME280;32622;48.202;11.326;2023-11-18T10:51:04;1028.25;;;7.31;32.85
46886;BME280;32622;48.202;11.326;2023-11-18T10:53:06;1028.42;;;6.76;32.93
46886;BME280;32622;48.202;11.326;2023-11-18T10:55:09;1028.59;;;5.90;33.62
46886;BME280;32622;48.202;11.326;2023-11-18T10:57:11;1028.48;;;6.18;33.12